sensor_id;sensor_type;location;lat;lon;timestamp;pressure;altitude;pressure_sealevel;temperature;humidity
24234;BME280;12365;43.554;1.388;2024-03-08T00:00:08;98636.47;;;14.11;55.41
24234;BME280;12365;43.554;1.388;2024-03-08T00:02:43;98630.34;;;14.11;55.42
24234;BME280;12365;43.554;1.388;2024-03-08T00:05:08;98646.06;;;14.12;55.51
24234;BME280;12365;43.554;1.388;2024-03-08T00:07:40;98659.19;;;14.12;55.49
24234;BME280;12365;43.554;1.388;2024-03-08T00:10:07;98656.56;;;14.12;55.35
24234;BME280;12365;43.554;1.388;2024-03-08T00:12:39;98646.06;;;14.11;55.39
24234;BME280;12365;43.554;1.388;2024-03-08T00:15:08;98632.97;;;14.12;55.33
24234;BME280;12365;43.554;1.388;2024-03-08T00:17:34;98619.84;;;14.11;55.31
24234;BME280;12365;43.554;1.388;2024-03-08T00:19:59;98623.34;;;14.11;55.41
24234;BME280;12365;43.554;1.388;2024-03-08T00:22:25;98628.56;;;14.09;55.14
24234;BME280;12365;43.554;1.388;2024-03-08T00:24:50;98627.69;;;14.09;55.32
24234;BME280;12365;43.554;1.388;2024-03-08T00:27:16;98621.56;;;14.08;55.26
24234;BME280;12365;43.554;1.388;2024-03-08T00:29:42;98605.81;;;14.08;55.40
24234;BME280;12365;43.554;1.388;2024-03-08T00:32:07;98611.94;;;14.09;55.32
24234;BME280;12365;43.554;1.388;2024-03-08T00:34:36;98608.41;;;14.07;55.28
24234;BME280;12365;43.554;1.388;2024-03-08T00:37:04;98620.69;;;14.09;55.22
24234;BME280;12365;43.554;1.388;2024-03-08T00:39:30;98607.56;;;14.08;55.27
24234;BME280;12365;43.554;1.388;2024-03-08T00:41:55;98606.69;;;14.09;55.15
24234;BME280;12365;43.554;1.388;2024-03-08T00:44:21;98596.19;;;14.09;55.19
24234;BME280;12365;43.554;1.388;2024-03-08T00:46:46;98593.59;;;14.09;55.21
24234;BME280;12365;43.554;1.388;2024-03-08T00:49:12;98592.66;;;14.07;55.14
24234;BME280;12365;43.554;1.388;2024-03-08T00:51:38;98586.50;;;14.05;55.07
24234;BME280;12365;43.554;1.388;2024-03-08T00:54:03;98584.81;;;14.07;55.06
24234;BME280;12365;43.554;1.388;2024-03-08T00:56:29;98587.44;;;14.07;55.00
24234;BME280;12365;43.554;1.388;2024-03-08T00:58:54;98597.91;;;14.07;54.94
24234;BME280;12365;43.554;1.388;2024-03-08T01:01:20;98597.06;;;14.08;54.91
24234;BME280;12365;43.554;1.388;2024-03-08T01:03:45;98584.81;;;14.07;54.93
24234;BME280;12365;43.554;1.388;2024-03-08T01:06:11;98586.63;;;14.11;54.82
24234;BME280;12365;43.554;1.388;2024-03-08T01:08:37;98578.72;;;14.09;54.87
24234;BME280;12365;43.554;1.388;2024-03-08T01:11:04;98572.63;;;14.11;54.83
24234;BME280;12365;43.554;1.388;2024-03-08T01:13:30;98577.84;;;14.09;54.74
24234;BME280;12365;43.554;1.388;2024-03-08T01:15:55;98571.75;;;14.12;54.69
24234;BME280;12365;43.554;1.388;2024-03-08T01:18:21;98575.25;;;14.12;54.83
24234;BME280;12365;43.554;1.388;2024-03-08T01:20:46;98578.75;;;14.11;54.74
24234;BME280;12365;43.554;1.388;2024-03-08T01:23:12;98576.97;;;14.10;54.85
24234;BME280;12365;43.554;1.388;2024-03-08T01:39:05;98550.72;;;14.07;55.02
24234;BME280;12365;43.554;1.388;2024-03-08T01:41:33;98555.91;;;14.04;54.90
24234;BME280;12365;43.554;1.388;2024-03-08T01:43:59;98545.44;;;14.04;54.84
24234;BME280;12365;43.554;1.388;2024-03-08T01:46:24;98533.19;;;14.04;55.01
24234;BME280;12365;43.554;1.388;2024-03-08T01:48:53;98531.44;;;14.05;55.02
24234;BME280;12365;43.554;1.388;2024-03-08T01:51:19;98529.69;;;14.04;54.96
24234;BME280;12365;43.554;1.388;2024-03-08T01:53:46;98532.28;;;14.02;55.06
24234;BME280;12365;43.554;1.388;2024-03-08T01:56:12;98521.78;;;14.01;54.95
24234;BME280;12365;43.554;1.388;2024-03-08T01:58:41;98508.69;;;14.01;55.04
24234;BME280;12365;43.554;1.388;2024-03-08T02:01:08;98508.69;;;14.01;55.13
24234;BME280;12365;43.554;1.388;2024-03-08T02:03:36;98504.28;;;14.00;55.10
24234;BME280;12365;43.554;1.388;2024-03-08T02:06:01;98493.78;;;13.98;55.12
24234;BME280;12365;43.554;1.388;2024-03-08T02:08:26;98482.44;;;13.98;55.21
24234;BME280;12365;43.554;1.388;2024-03-08T02:10:52;98478.94;;;13.99;55.22
24234;BME280;12365;43.554;1.388;2024-03-08T02:13:17;98476.28;;;13.97;55.19
24234;BME280;12365;43.554;1.388;2024-03-08T02:15:57;98456.13;;;13.95;55.30
24234;BME280;12365;43.554;1.388;2024-03-08T02:18:26;98471.00;;;13.94;55.10
24234;BME280;12365;43.554;1.388;2024-03-08T02:20:53;98449.13;;;13.92;55.15
24234;BME280;12365;43.554;1.388;2024-03-08T02:23:22;98457.81;;;13.90;55.28
24234;BME280;12365;43.554;1.388;2024-03-08T02:25:50;98436.00;;;13.91;55.07
24234;BME280;12365;43.554;1.388;2024-03-08T02:28:16;98446.47;;;13.89;55.24
24234;BME280;12365;43.554;1.388;2024-03-08T02:30:44;98440.34;;;13.88;55.05
24234;BME280;12365;43.554;1.388;2024-03-08T02:33:09;98434.19;;;13.86;55.10
24234;BME280;12365;43.554;1.388;2024-03-08T02:35:36;98415.84;;;13.86;55.23
24234;BME280;12365;43.554;1.388;2024-03-08T02:38:02;98420.19;;;13.83;55.28
24234;BME280;12365;43.554;1.388;2024-03-08T02:40:29;98423.69;;;13.83;55.38
24234;BME280;12365;43.554;1.388;2024-03-08T02:42:54;98432.41;;;13.82;55.20
24234;BME280;12365;43.554;1.388;2024-03-08T02:45:19;98426.28;;;13.80;55.12
24234;BME280;12365;43.554;1.388;2024-03-08T02:47:45;98414.03;;;13.81;55.21
24234;BME280;12365;43.554;1.388;2024-03-08T02:50:11;98404.41;;;13.80;55.21
24234;BME280;12365;43.554;1.388;2024-03-08T02:52:37;98408.75;;;13.79;55.13
24234;BME280;12365;43.554;1.388;2024-03-08T02:55:02;98403.50;;;13.76;55.04
24234;BME280;12365;43.554;1.388;2024-03-08T02:57:28;98393.88;;;13.75;54.97
24234;BME280;12365;43.554;1.388;2024-03-08T02:59:54;98402.59;;;13.74;55.19
24234;BME280;12365;43.554;1.388;2024-03-08T03:02:19;98399.97;;;13.74;55.09
24234;BME280;12365;43.554;1.388;2024-03-08T03:04:45;98377.25;;;13.73;55.02
24234;BME280;12365;43.554;1.388;2024-03-08T03:07:10;98390.34;;;13.75;55.03
24234;BME280;12365;43.554;1.388;2024-03-08T03:09:36;98376.41;;;13.77;54.96
24234;BME280;12365;43.554;1.388;2024-03-08T03:12:02;98391.25;;;13.75;54.91
24234;BME280;12365;43.554;1.388;2024-03-08T03:14:28;98384.28;;;13.76;54.89
24234;BME280;12365;43.554;1.388;2024-03-08T03:16:53;98372.91;;;13.75;54.82
24234;BME280;12365;43.554;1.388;2024-03-08T03:19:19;98372.03;;;13.76;54.87
24234;BME280;12365;43.554;1.388;2024-03-08T03:21:45;98377.28;;;13.76;54.82
24234;BME280;12365;43.554;1.388;2024-03-08T03:24:11;98386.91;;;13.79;54.87
24234;BME280;12365;43.554;1.388;2024-03-08T03:26:38;98386.00;;;13.77;54.89
24234;BME280;12365;43.554;1.388;2024-03-08T03:29:07;98381.66;;;13.77;54.89
24234;BME280;12365;43.554;1.388;2024-03-08T03:31:35;98383.41;;;13.77;55.10
24234;BME280;12365;43.554;1.388;2024-03-08T03:34:01;98374.66;;;13.76;54.81
24234;BME280;12365;43.554;1.388;2024-03-08T03:36:34;98372.03;;;13.76;54.75
24234;BME280;12365;43.554;1.388;2024-03-08T03:39:00;98364.16;;;13.76;54.75
24234;BME280;12365;43.554;1.388;2024-03-08T03:41:45;98366.78;;;13.76;54.81
24234;BME280;12365;43.554;1.388;2024-03-08T03:44:11;98339.72;;;13.76;54.61
24234;BME280;12365;43.554;1.388;2024-03-08T03:46:36;98344.06;;;13.75;54.63
24234;BME280;12365;43.554;1.388;2024-03-08T03:49:02;98331.81;;;13.74;54.75
24234;BME280;12365;43.554;1.388;2024-03-08T03:51:28;98330.91;;;13.72;54.61
24234;BME280;12365;43.554;1.388;2024-03-08T03:53:54;98336.16;;;13.72;54.61
24234;BME280;12365;43.554;1.388;2024-03-08T03:56:25;98314.31;;;13.70;54.65
24234;BME280;12365;43.554;1.388;2024-03-08T03:58:51;98316.06;;;13.71;54.54
24234;BME280;12365;43.554;1.388;2024-03-08T04:01:16;98327.41;;;13.70;54.59
24234;BME280;12365;43.554;1.388;2024-03-08T04:03:42;98348.38;;;13.72;54.60
24234;BME280;12365;43.554;1.388;2024-03-08T04:06:08;98350.13;;;13.71;54.52
24234;BME280;12365;43.554;1.388;2024-03-08T04:08:33;98358.91;;;13.73;54.50
24234;BME280;12365;43.554;1.388;2024-03-08T04:11:00;98357.13;;;13.71;54.31
24234;BME280;12365;43.554;1.388;2024-03-08T04:13:25;98371.97;;;13.72;54.49
24234;BME280;12365;43.554;1.388;2024-03-08T04:15:51;98364.94;;;13.69;54.47
24234;BME280;12365;43.554;1.388;2024-03-08T04:18:17;98364.94;;;13.69;54.47
24234;BME280;12365;43.554;1.388;2024-03-08T04:20:43;98371.06;;;13.70;54.41
24234;BME280;12365;43.554;1.388;2024-03-08T04:23:08;98356.19;;;13.67;54.39
24234;BME280;12365;43.554;1.388;2024-03-08T04:25:34;98358.84;;;13.69;54.46
24234;BME280;12365;43.554;1.388;2024-03-08T04:27:59;98361.50;;;13.70;54.44
24234;BME280;12365;43.554;1.388;2024-03-08T04:30:25;98371.97;;;13.70;54.38
24234;BME280;12365;43.554;1.388;2024-03-08T04:32:53;98358.84;;;13.69;54.42
24234;BME280;12365;43.554;1.388;2024-03-08T04:35:19;98363.19;;;13.70;54.48
24234;BME280;12365;43.554;1.388;2024-03-08T04:37:45;98353.63;;;13.72;54.39
24234;BME280;12365;43.554;1.388;2024-03-08T04:40:11;98359.75;;;13.72;54.48
24234;BME280;12365;43.554;1.388;2024-03-08T04:42:37;98350.16;;;13.73;54.42
24234;BME280;12365;43.554;1.388;2024-03-08T04:45:04;98352.78;;;13.74;54.60
24234;BME280;12365;43.554;1.388;2024-03-08T04:47:30;98350.19;;;13.76;54.55
24234;BME280;12365;43.554;1.388;2024-03-08T04:49:56;98330.06;;;13.75;54.52
24234;BME280;12365;43.554;1.388;2024-03-08T04:52:22;98341.47;;;13.75;54.53
24234;BME280;12365;43.554;1.388;2024-03-08T04:54:47;98338.84;;;13.75;54.71
24234;BME280;12365;43.554;1.388;2024-03-08T04:57:13;98323.09;;;13.75;54.41
24234;BME280;12365;43.554;1.388;2024-03-08T04:59:39;98323.97;;;13.77;54.53
24234;BME280;12365;43.554;1.388;2024-03-08T05:02:05;98318.72;;;13.77;54.74
24234;BME280;12365;43.554;1.388;2024-03-08T05:04:32;98320.47;;;13.77;54.85
24234;BME280;12365;43.554;1.388;2024-03-08T05:06:57;98316.16;;;13.79;54.56
24234;BME280;12365;43.554;1.388;2024-03-08T05:09:27;98301.31;;;13.81;54.63
24234;BME280;12365;43.554;1.388;2024-03-08T05:11:54;98305.69;;;13.82;54.74
24234;BME280;12365;43.554;1.388;2024-03-08T05:14:19;98292.63;;;13.83;54.75
24234;BME280;12365;43.554;1.388;2024-03-08T05:16:46;98292.63;;;13.83;54.73
24234;BME280;12365;43.554;1.388;2024-03-08T05:19:18;98286.50;;;13.84;54.83
24234;BME280;12365;43.554;1.388;2024-03-08T05:21:44;98282.13;;;13.83;54.79
24234;BME280;12365;43.554;1.388;2024-03-08T05:24:10;98265.53;;;13.84;54.90
24234;BME280;12365;43.554;1.388;2024-03-08T05:26:36;98274.28;;;13.85;54.94
24234;BME280;12365;43.554;1.388;2024-03-08T05:29:03;98262.06;;;13.85;54.98
24234;BME280;12365;43.554;1.388;2024-03-08T05:31:28;98271.66;;;13.85;54.80
24234;BME280;12365;43.554;1.388;2024-03-08T05:33:56;98273.38;;;13.84;55.03
24234;BME280;12365;43.554;1.388;2024-03-08T05:36:21;98260.34;;;13.87;54.94
24234;BME280;12365;43.554;1.388;2024-03-08T05:38:47;98271.66;;;13.86;55.02
24234;BME280;12365;43.554;1.388;2024-03-08T05:41:14;98280.41;;;13.87;55.01
24234;BME280;12365;43.554;1.388;2024-03-08T05:43:40;98272.56;;;13.88;55.02
24234;BME280;12365;43.554;1.388;2024-03-08T05:46:06;98264.69;;;13.88;55.00
24234;BME280;12365;43.554;1.388;2024-03-08T05:48:31;98277.84;;;13.92;54.96
24234;BME280;12365;43.554;1.388;2024-03-08T05:51:02;98291.84;;;13.94;55.11
24234;BME280;12365;43.554;1.388;2024-03-08T05:53:28;98289.25;;;13.97;55.37
24234;BME280;12365;43.554;1.388;2024-03-08T05:55:57;98294.50;;;13.97;55.08
24234;BME280;12365;43.554;1.388;2024-03-08T05:58:22;98313.72;;;13.97;55.17
24234;BME280;12365;43.554;1.388;2024-03-08T06:00:48;98310.22;;;13.97;55.19
24234;BME280;12365;43.554;1.388;2024-03-08T06:03:13;98316.38;;;13.99;55.22
24234;BME280;12365;43.554;1.388;2024-03-08T06:05:39;98318.09;;;14.00;55.29
24234;BME280;12365;43.554;1.388;2024-03-08T06:08:07;98309.41;;;14.01;55.37
24234;BME280;12365;43.554;1.388;2024-03-08T06:10:33;98320.75;;;14.01;55.42
24234;BME280;12365;43.554;1.388;2024-03-08T06:12:58;98324.25;;;14.02;55.48
24234;BME280;12365;43.554;1.388;2024-03-08T06:15:25;98320.75;;;14.01;55.78
24234;BME280;12365;43.554;1.388;2024-03-08T06:17:51;98322.53;;;14.04;55.77
24234;BME280;12365;43.554;1.388;2024-03-08T06:20:18;98320.81;;;14.06;55.83
24234;BME280;12365;43.554;1.388;2024-03-08T06:22:43;98322.56;;;14.07;56.08
24234;BME280;12365;43.554;1.388;2024-03-08T06:25:13;98328.69;;;14.09;56.02
24234;BME280;12365;43.554;1.388;2024-03-08T06:27:42;98333.06;;;14.10;56.05
24234;BME280;12365;43.554;1.388;2024-03-08T06:30:08;98350.56;;;14.09;56.22
24234;BME280;12365;43.554;1.388;2024-03-08T06:32:37;98368.06;;;14.11;56.27
24234;BME280;12365;43.554;1.388;2024-03-08T06:35:04;98377.72;;;14.13;56.49
24234;BME280;12365;43.554;1.388;2024-03-08T06:37:33;98361.06;;;14.13;56.56
24234;BME280;12365;43.554;1.388;2024-03-08T06:39:59;98351.47;;;14.12;56.68
24234;BME280;12365;43.554;1.388;2024-03-08T06:42:26;98364.59;;;14.13;56.75
24234;BME280;12365;43.554;1.388;2024-03-08T06:44:51;98378.56;;;14.12;56.88
24234;BME280;12365;43.554;1.388;2024-03-08T06:47:20;98370.72;;;14.14;56.92
24234;BME280;12365;43.554;1.388;2024-03-08T06:49:46;98375.09;;;14.13;57.00
24234;BME280;12365;43.554;1.388;2024-03-08T06:52:11;98359.31;;;14.12;57.00
24234;BME280;12365;43.554;1.388;2024-03-08T06:54:37;98366.31;;;14.13;57.19
24234;BME280;12365;43.554;1.388;2024-03-08T06:57:03;98357.56;;;14.12;57.20
24234;BME280;12365;43.554;1.388;2024-03-08T06:59:29;98350.59;;;14.11;57.26
24234;BME280;12365;43.554;1.388;2024-03-08T07:01:54;98359.28;;;14.10;57.44
24234;BME280;12365;43.554;1.388;2024-03-08T07:04:20;98361.06;;;14.11;57.40
24234;BME280;12365;43.554;1.388;2024-03-08T07:06:47;98353.19;;;14.09;57.70
24234;BME280;12365;43.554;1.388;2024-03-08T07:09:15;98355.81;;;14.09;57.79
24234;BME280;12365;43.554;1.388;2024-03-08T07:11:42;98368.06;;;14.11;57.85
24234;BME280;12365;43.554;1.388;2024-03-08T07:14:08;98361.03;;;14.09;57.90
24234;BME280;12365;43.554;1.388;2024-03-08T07:16:34;98360.16;;;14.09;58.06
24234;BME280;12365;43.554;1.388;2024-03-08T07:19:01;98369.78;;;14.08;58.16
24234;BME280;12365;43.554;1.388;2024-03-08T07:21:26;98365.41;;;14.06;58.26
24234;BME280;12365;43.554;1.388;2024-03-08T07:23:52;98385.44;;;14.02;58.32
24234;BME280;12365;43.554;1.388;2024-03-08T07:26:26;98382.78;;;13.98;58.57
24234;BME280;12365;43.554;1.388;2024-03-08T07:28:52;98388.84;;;13.94;58.89
24234;BME280;12365;43.554;1.388;2024-03-08T07:31:20;98397.59;;;13.94;58.88
24234;BME280;12365;43.554;1.388;2024-03-08T07:34:00;98392.31;;;13.91;59.06
24234;BME280;12365;43.554;1.388;2024-03-08T07:36:25;98388.78;;;13.87;59.14
24234;BME280;12365;43.554;1.388;2024-03-08T07:38:51;98392.25;;;13.86;59.13
24234;BME280;12365;43.554;1.388;2024-03-08T07:41:16;98393.97;;;13.83;59.29
24234;BME280;12365;43.554;1.388;2024-03-08T07:43:42;98401.81;;;13.81;59.49
24234;BME280;12365;43.554;1.388;2024-03-08T07:46:09;98399.16;;;13.78;59.58
24234;BME280;12365;43.554;1.388;2024-03-08T07:48:35;98386.00;;;13.75;59.61
24234;BME280;12365;43.554;1.388;2024-03-08T07:51:02;98382.50;;;13.75;59.76
24234;BME280;12365;43.554;1.388;2024-03-08T07:53:28;98378.09;;;13.72;59.92
24234;BME280;12365;43.554;1.388;2024-03-08T07:55:53;98370.19;;;13.69;60.07
24234;BME280;12365;43.554;1.388;2024-03-08T07:58:19;98368.44;;;13.68;59.89
24234;BME280;12365;43.554;1.388;2024-03-08T08:00:44;98360.56;;;13.66;60.05
24234;BME280;12365;43.554;1.388;2024-03-08T08:03:10;98356.19;;;13.67;60.25
24234;BME280;12365;43.554;1.388;2024-03-08T08:05:35;98343.09;;;13.65;60.27
24234;BME280;12365;43.554;1.388;2024-03-08T08:08:04;98348.28;;;13.64;60.39
24234;BME280;12365;43.554;1.388;2024-03-08T08:10:34;98347.44;;;13.65;60.39
24234;BME280;12365;43.554;1.388;2024-03-08T08:13:00;98339.56;;;13.63;60.50
24234;BME280;12365;43.554;1.388;2024-03-08T08:15:25;98336.94;;;13.63;60.72
24234;BME280;12365;43.554;1.388;2024-03-08T08:17:51;98336.91;;;13.62;60.82
24234;BME280;12365;43.554;1.388;2024-03-08T08:20:19;98331.66;;;13.62;60.82
24234;BME280;12365;43.554;1.388;2024-03-08T08:22:44;98328.19;;;13.63;60.75
24234;BME280;12365;43.554;1.388;2024-03-08T08:25:10;98332.53;;;13.61;60.82
24234;BME280;12365;43.554;1.388;2024-03-08T08:27:38;98325.53;;;13.58;60.97
24234;BME280;12365;43.554;1.388;2024-03-08T08:30:10;98328.09;;;13.57;61.04
24234;BME280;12365;43.554;1.388;2024-03-08T08:32:36;98315.00;;;13.55;61.06
24234;BME280;12365;43.554;1.388;2024-03-08T08:35:03;98308.00;;;13.54;61.30
24234;BME280;12365;43.554;1.388;2024-03-08T08:37:30;98310.63;;;13.54;61.29
24234;BME280;12365;43.554;1.388;2024-03-08T08:39:56;98308.00;;;13.54;61.43
24234;BME280;12365;43.554;1.388;2024-03-08T08:42:23;98300.16;;;13.56;61.48
24234;BME280;12365;43.554;1.388;2024-03-08T08:44:48;98306.28;;;13.55;61.44
24234;BME280;12365;43.554;1.388;2024-03-08T08:47:16;98321.09;;;13.54;61.48
24234;BME280;12365;43.554;1.388;2024-03-08T08:49:44;98329.84;;;13.55;61.71
24234;BME280;12365;43.554;1.388;2024-03-08T08:52:11;98338.56;;;13.54;61.72
24234;BME280;12365;43.554;1.388;2024-03-08T08:54:37;98347.25;;;13.51;61.69
24234;BME280;12365;43.554;1.388;2024-03-08T08:57:02;98342.03;;;13.50;61.81
24234;BME280;12365;43.554;1.388;2024-03-08T08:59:33;98334.94;;;13.44;61.91
24234;BME280;12365;43.554;1.388;2024-03-08T09:02:03;98313.00;;;13.36;62.32
24234;BME280;12365;43.554;1.388;2024-03-08T09:04:29;98304.97;;;13.23;62.27
24234;BME280;12365;43.554;1.388;2024-03-08T09:06:56;98302.22;;;13.13;62.44
24234;BME280;12365;43.554;1.388;2024-03-08T09:09:22;98299.53;;;13.07;62.63
24234;BME280;12365;43.554;1.388;2024-03-08T09:11:47;98308.19;;;13.02;62.71
24234;BME280;12365;43.554;1.388;2024-03-08T09:14:14;98307.25;;;12.99;62.78
24234;BME280;12365;43.554;1.388;2024-03-08T09:16:39;98315.09;;;12.97;62.76
24234;BME280;12365;43.554;1.388;2024-03-08T09:19:05;98321.09;;;12.89;62.84
24234;BME280;12365;43.554;1.388;2024-03-08T09:21:32;98322.69;;;12.79;62.89
24234;BME280;12365;43.554;1.388;2024-03-08T09:23:58;98327.78;;;12.73;62.93
24234;BME280;12365;43.554;1.388;2024-03-08T09:26:24;98334.72;;;12.69;62.92
24234;BME280;12365;43.554;1.388;2024-03-08T09:28:49;98332.91;;;12.64;62.97
24234;BME280;12365;43.554;1.388;2024-03-08T09:31:14;98333.69;;;12.60;63.09
24234;BME280;12365;43.554;1.388;2024-03-08T09:33:42;98332.78;;;12.57;63.05
24234;BME280;12365;43.554;1.388;2024-03-08T09:36:07;98331.00;;;12.53;63.00
24234;BME280;12365;43.554;1.388;2024-03-08T09:38:33;98337.06;;;12.52;62.96
24234;BME280;12365;43.554;1.388;2024-03-08T09:41:01;98340.50;;;12.50;63.05
24234;BME280;12365;43.554;1.388;2024-03-08T09:43:30;98350.00;;;12.45;63.03
24234;BME280;12365;43.554;1.388;2024-03-08T09:45:57;98355.06;;;12.35;63.38
24234;BME280;12365;43.554;1.388;2024-03-08T09:48:23;98352.41;;;12.32;63.13
24234;BME280;12365;43.554;1.388;2024-03-08T09:50:49;98352.31;;;12.28;63.15
24234;BME280;12365;43.554;1.388;2024-03-08T09:53:15;98360.16;;;12.26;63.14
24234;BME280;12365;43.554;1.388;2024-03-08T09:55:41;98351.47;;;12.27;63.20
24234;BME280;12365;43.554;1.388;2024-03-08T09:58:14;98350.63;;;12.28;63.25
24234;BME280;12365;43.554;1.388;2024-03-08T10:00:58;98354.09;;;12.29;63.15
24234;BME280;12365;43.554;1.388;2024-03-08T10:03:24;98347.97;;;12.27;63.11
24234;BME280;12365;43.554;1.388;2024-03-08T10:05:52;98333.19;;;12.29;63.02
24234;BME280;12365;43.554;1.388;2024-03-08T10:08:21;98334.03;;;12.28;62.97
24234;BME280;12365;43.554;1.388;2024-03-08T10:10:47;98318.31;;;12.26;63.09
24234;BME280;12365;43.554;1.388;2024-03-08T10:13:12;98291.34;;;12.30;63.28
24234;BME280;12365;43.554;1.388;2024-03-08T10:15:39;98224.28;;;12.31;63.24
24234;BME280;12365;43.554;1.388;2024-03-08T10:18:05;98195.56;;;12.34;62.91
24234;BME280;12365;43.554;1.388;2024-03-08T10:20:32;98198.13;;;12.32;62.72
24234;BME280;12365;43.554;1.388;2024-03-08T10:23:01;98192.94;;;12.34;62.70
24234;BME280;12365;43.554;1.388;2024-03-08T10:25:29;98169.38;;;12.31;62.58
24234;BME280;12365;43.554;1.388;2024-03-08T10:27:55;98137.09;;;12.30;62.54
24234;BME280;12365;43.554;1.388;2024-03-08T10:30:21;98130.94;;;12.27;62.45
24234;BME280;12365;43.554;1.388;2024-03-08T10:32:47;98113.53;;;12.26;62.45
24234;BME280;12365;43.554;1.388;2024-03-08T10:35:13;98126.59;;;12.27;62.54
24234;BME280;12365;43.554;1.388;2024-03-08T10:37:49;98118.81;;;12.32;62.64
24234;BME280;12365;43.554;1.388;2024-03-08T10:40:24;98125.91;;;12.39;62.54
24234;BME280;12365;43.554;1.388;2024-03-08T10:42:57;98142.56;;;12.47;62.35
24234;BME280;12365;43.554;1.388;2024-03-08T10:45:31;98160.97;;;12.53;62.37
24234;BME280;12365;43.554;1.388;2024-03-08T10:50:46;98173.53;;;12.84;61.89
24234;BME280;12365;43.554;1.388;2024-03-08T10:53:13;98213.06;;;13.02;61.78
24234;BME280;12365;43.554;1.388;2024-03-08T10:55:40;98228.13;;;13.20;61.76
24234;BME280;12365;43.554;1.388;2024-03-08T10:58:06;98259.00;;;13.46;61.62
24234;BME280;12365;43.554;1.388;2024-03-08T11:00:33;98283.00;;;13.82;61.62
24234;BME280;12365;43.554;1.388;2024-03-08T11:02:58;98306.06;;;14.20;61.34
24234;BME280;12365;43.554;1.388;2024-03-08T11:05:39;98310.78;;;14.55;61.00
24234;BME280;12365;43.554;1.388;2024-03-08T11:10:55;98289.06;;;14.78;60.62
24234;BME280;12365;43.554;1.388;2024-03-08T11:13:33;98285.81;;;15.18;60.58
24234;BME280;12365;43.554;1.388;2024-03-08T11:16:01;98287.69;;;15.49;59.87
24234;BME280;12365;43.554;1.388;2024-03-08T11:18:26;98286.09;;;15.80;59.60
24234;BME280;12365;43.554;1.388;2024-03-08T11:20:55;98289.66;;;16.19;58.99
24234;BME280;12365;43.554;1.388;2024-03-08T11:23:23;98304.59;;;16.54;58.48
24234;BME280;12365;43.554;1.388;2024-03-08T11:25:49;98310.75;;;16.83;58.00
24234;BME280;12365;43.554;1.388;2024-03-08T11:33:27;98303.56;;;17.50;56.59
24234;BME280;12365;43.554;1.388;2024-03-08T11:36:22;98308.72;;;17.71;56.45
24234;BME280;12365;43.554;1.388;2024-03-08T11:38:49;98308.66;;;17.90;55.74
24234;BME280;12365;43.554;1.388;2024-03-08T11:41:17;98300.72;;;17.94;55.62
24234;BME280;12365;43.554;1.388;2024-03-08T11:43:48;98301.50;;;18.10;55.25
24234;BME280;12365;43.554;1.388;2024-03-08T11:46:15;98305.03;;;18.09;54.83
24234;BME280;12365;43.554;1.388;2024-03-08T11:48:42;98300.69;;;18.04;54.44
24234;BME280;12365;43.554;1.388;2024-03-08T11:51:09;98303.31;;;18.02;54.39
24234;BME280;12365;43.554;1.388;2024-03-08T11:53:37;98311.31;;;17.87;54.00
24234;BME280;12365;43.554;1.388;2024-03-08T11:56:13;98318.38;;;17.77;54.13
24234;BME280;12365;43.554;1.388;2024-03-08T11:58:39;98308.72;;;17.84;54.25
24234;BME280;12365;43.554;1.388;2024-03-08T12:01:09;98313.06;;;17.91;53.62
24234;BME280;12365;43.554;1.388;2024-03-08T12:03:41;98298.94;;;18.00;53.10
24234;BME280;12365;43.554;1.388;2024-03-08T12:06:12;98297.13;;;18.09;53.32
24234;BME280;12365;43.554;1.388;2024-03-08T12:08:38;98294.41;;;18.22;52.92
24234;BME280;12365;43.554;1.388;2024-03-08T12:11:04;98295.22;;;18.30;52.72
24234;BME280;12365;43.554;1.388;2024-03-08T12:13:32;98293.50;;;18.23;52.53
24234;BME280;12365;43.554;1.388;2024-03-08T12:15:59;98292.72;;;18.11;52.25
24234;BME280;12365;43.554;1.388;2024-03-08T12:18:25;98289.19;;;18.11;52.22
24234;BME280;12365;43.554;1.388;2024-03-08T12:21:11;98281.22;;;18.17;52.14
24234;BME280;12365;43.554;1.388;2024-03-08T12:23:39;98282.94;;;18.23;51.59
24234;BME280;12365;43.554;1.388;2024-03-08T12:26:16;98282.16;;;18.13;51.54
24234;BME280;12365;43.554;1.388;2024-03-08T12:28:43;98283.03;;;18.07;51.23
24234;BME280;12365;43.554;1.388;2024-03-08T12:31:12;98282.19;;;18.08;51.12
24234;BME280;12365;43.554;1.388;2024-03-08T12:33:51;98276.91;;;18.07;51.10
24234;BME280;12365;43.554;1.388;2024-03-08T12:36:18;98266.28;;;18.14;50.95
24234;BME280;12365;43.554;1.388;2024-03-08T12:38:44;98266.19;;;18.27;50.68
24234;BME280;12365;43.554;1.388;2024-03-08T12:41:14;98263.53;;;18.30;50.48
24234;BME280;12365;43.554;1.388;2024-03-08T12:43:39;98262.69;;;18.25;50.34
24234;BME280;12365;43.554;1.388;2024-03-08T12:46:05;98270.63;;;18.23;50.28
24234;BME280;12365;43.554;1.388;2024-03-08T12:48:34;98259.19;;;18.26;50.30
24234;BME280;12365;43.554;1.388;2024-03-08T12:51:00;98260.94;;;18.24;50.06
24234;BME280;12365;43.554;1.388;2024-03-08T12:53:26;98256.53;;;18.26;50.14
24234;BME280;12365;43.554;1.388;2024-03-08T12:55:54;98255.59;;;18.30;50.05
24234;BME280;12365;43.554;1.388;2024-03-08T12:58:21;98258.31;;;18.24;49.53
24234;BME280;12365;43.554;1.388;2024-03-08T13:00:47;98251.34;;;18.13;49.48
24234;BME280;12365;43.554;1.388;2024-03-08T13:03:14;98260.13;;;18.12;49.40
24234;BME280;12365;43.554;1.388;2024-03-08T13:05:39;98253.94;;;18.19;49.42
24234;BME280;12365;43.554;1.388;2024-03-08T13:08:06;98253.84;;;18.32;49.32
24234;BME280;12365;43.554;1.388;2024-03-08T13:10:37;98247.53;;;18.48;49.06
24234;BME280;12365;43.554;1.388;2024-03-08T13:13:03;98246.50;;;18.63;49.17
24234;BME280;12365;43.554;1.388;2024-03-08T13:15:30;98253.41;;;18.81;49.06
24234;BME280;12365;43.554;1.388;2024-03-08T13:17:55;98245.56;;;18.76;48.44
24234;BME280;12365;43.554;1.388;2024-03-08T13:20:23;98247.41;;;18.62;48.57
24234;BME280;12365;43.554;1.388;2024-03-08T13:22:48;98242.09;;;18.67;48.30